Time;durP1;ratioP1;P1;durP2;ratioP2;P2;SDS_P1;SDS_P2;PMS_P1;PMS_P2;Temp;Humidity;BMP_temperature;BMP_pressure;BME280_temperature;BME280_humidity;BME280_pressure;Samples;Min_cycle;Max_cycle;Signal;HPM_P1;HPM_P2
2022/03/09 00:01:23;;;;;;;;;;;;;;;17.64;38.58;100931.75;5075460;28;839;-64
2022/03/09 00:03:48;;;;;;;;;;;;;;;18.23;37.12;100921.16;5074773;28;1204;-62
2022/03/09 00:06:14;;;;;;;;;;;;;;;17.56;38.37;100924.09;5075895;28;1336;-64
2022/03/09 00:08:39;;;;;;;;;;;;;;;17.65;38.64;100925.16;5078285;28;1165;-62
2022/03/09 00:11:05;;;;;;;;;;;;;;;18.47;36.81;100927.69;5075221;28;1220;-63
2022/03/09 00:13:30;;;;;;;;;;;;;;;18.15;37.34;100930.03;5077424;28;1982;-61
2022/03/09 00:15:56;;;;;;;;;;;;;;;17.37;38.67;100927.38;5077158;28;1201;-63
2022/03/09 00:18:21;;;;;;;;;;;;;;;17.15;39.08;100932.31;5077917;28;1170;-63
2022/03/09 00:20:47;;;;;;;;;;;;;;;17.55;38.83;100922.41;5077783;28;1250;-62
2022/03/09 00:23:12;;;;;;;;;;;;;;;19.15;35.73;100930.88;5078298;28;1169;-63
2022/03/09 00:25:38;;;;;;;;;;;;;;;18.98;35.40;100934.03;5077377;28;1102;-62
2022/03/09 00:28:05;;;;;;;;;;;;;;;18.20;37.44;100938.25;5077926;28;1153;-62
2022/03/09 00:30:32;;;;;;;;;;;;;;;17.60;38.03;100925.19;5075791;28;1288;-63
2022/03/09 00:32:57;;;;;;;;;;;;;;;17.32;38.15;100932.03;5077356;28;1974;-62
2022/03/09 00:35:23;;;;;;;;;;;;;;;16.83;39.02;100938.81;5077859;28;1280;-63
2022/03/09 00:37:49;;;;;;;;;;;;;;;17.27;39.23;100930.94;5077314;28;1367;-62
2022/03/09 00:40:15;;;;;;;;;;;;;;;17.97;37.52;100924.03;5077515;28;1350;-63
2022/03/09 00:42:40;;;;;;;;;;;;;;;17.51;38.81;100927.63;5076929;28;1271;-63
2022/03/09 00:45:06;;;;;;;;;;;;;;;17.02;39.83;100920.75;5077154;28;1284;-63
2022/03/09 00:47:31;;;;;;;;;;;;;;;16.81;40.28;100924.53;5077126;28;1304;-62
2022/03/09 00:49:57;;;;;;;;;;;;;;;16.91;40.26;100927.34;5077498;28;1261;-62
2022/03/09 00:52:22;;;;;;;;;;;;;;;18.43;36.92;100915.59;5077114;28;1296;-61
2022/03/09 00:54:48;;;;;;;;;;;;;;;17.81;38.21;100914.97;5078465;28;1909;-60
2022/03/09 00:57:14;;;;;;;;;;;;;;;17.40;38.96;100909.50;5078515;28;872;-61
2022/03/09 00:59:40;;;;;;;;;;;;;;;17.35;39.41;100923.25;5078213;28;841;-60
2022/03/09 01:02:05;;;;;;;;;;;;;;;18.45;36.78;100905.13;5078469;28;1007;-61
2022/03/09 01:04:34;;;;;;;;;;;;;;;18.53;36.35;100905.63;5078343;28;869;-61
2022/03/09 01:06:59;;;;;;;;;;;;;;;17.68;38.31;100901.78;5078047;28;824;-60
2022/03/09 01:09:25;;;;;;;;;;;;;;;17.36;38.86;100897.41;5078453;28;865;-60
2022/03/09 01:11:50;;;;;;;;;;;;;;;18.07;37.72;100901.97;5077995;28;783;-60
2022/03/09 01:14:15;;;;;;;;;;;;;;;18.73;36.11;100902.78;5078255;28;1975;-61
2022/03/09 01:16:41;;;;;;;;;;;;;;;18.19;37.00;100896.16;5077498;28;1093;-60
2022/03/09 01:19:07;;;;;;;;;;;;;;;17.57;38.29;100896.31;5077905;28;816;-60
2022/03/09 01:21:33;;;;;;;;;;;;;;;17.24;39.11;100895.78;5077874;28;852;-62
2022/03/09 01:23:58;;;;;;;;;;;;;;;18.17;37.33;100895.59;5078184;28;830;-60
2022/03/09 01:26:24;;;;;;;;;;;;;;;19.19;35.22;100903.56;5077374;28;786;-60
2022/03/09 01:28:49;;;;;;;;;;;;;;;18.33;36.75;100910.13;5077775;28;769;-60
2022/03/09 01:31:15;;;;;;;;;;;;;;;18.38;36.86;100907.34;5077478;28;786;-61
2022/03/09 01:33:40;;;;;;;;;;;;;;;19.21;35.28;100906.84;5077653;28;1905;-61
2022/03/09 01:36:06;;;;;;;;;;;;;;;18.60;36.31;100908.91;5077939;28;849;-60
2022/03/09 01:38:32;;;;;;;;;;;;;;;17.93;37.91;100907.25;5077539;28;848;-60
2022/03/09 01:40:57;;;;;;;;;;;;;;;17.63;38.62;100902.63;5077860;28;823;-59
2022/03/09 01:43:23;;;;;;;;;;;;;;;18.19;37.55;100909.06;5077992;28;910;-59
2022/03/09 01:45:48;;;;;;;;;;;;;;;18.19;37.27;100906.31;5077283;28;808;-60
2022/03/09 01:48:14;;;;;;;;;;;;;;;17.66;38.26;100906.75;5077374;28;732;-60
2022/03/09 01:50:39;;;;;;;;;;;;;;;17.49;38.71;100893.28;5077436;28;1174;-60
2022/03/09 01:53:04;;;;;;;;;;;;;;;18.54;36.58;100899.03;5077427;28;1897;-60
2022/03/09 01:55:30;;;;;;;;;;;;;;;18.72;35.93;100892.84;5077231;28;790;-59
2022/03/09 01:57:55;;;;;;;;;;;;;;;18.14;37.38;100901.66;5077214;28;800;-60
2022/03/09 02:00:22;;;;;;;;;;;;;;;17.65;38.12;100892.16;5077061;28;828;-60
2022/03/09 02:02:47;;;;;;;;;;;;;;;17.04;38.63;100904.84;5077107;28;958;-60
2022/03/09 02:05:15;;;;;;;;;;;;;;;16.72;38.76;100911.34;5077290;28;919;-62
2022/03/09 02:10:24;;;;;;;;;;;;;;;17.66;38.47;100891.06;5104850;28;799;-60
2022/03/09 02:12:49;;;;;;;;;;;;;;;17.24;38.99;100894.97;5109842;28;1909;-60
2022/03/09 02:15:15;;;;;;;;;;;;;;;17.10;39.40;100902.91;5076394;28;978;-61
2022/03/09 02:17:40;;;;;;;;;;;;;;;16.82;39.87;100901.50;5076594;28;942;-60
2022/03/09 02:20:06;;;;;;;;;;;;;;;18.77;36.54;100909.31;5077197;28;845;-61
2022/03/09 02:22:32;;;;;;;;;;;;;;;18.27;37.15;100905.75;5076373;28;805;-60
2022/03/09 02:24:58;;;;;;;;;;;;;;;17.91;37.67;100911.41;5076540;28;1368;-60
2022/03/09 02:27:23;;;;;;;;;;;;;;;17.24;38.31;100901.25;5076025;28;1506;-60
2022/03/09 02:29:49;;;;;;;;;;;;;;;16.90;39.21;100914.69;5076395;28;813;-60
2022/03/09 02:32:15;;;;;;;;;;;;;;;17.81;38.25;100914.13;5076560;28;879;-60
2022/03/09 02:34:40;;;;;;;;;;;;;;;17.52;38.63;100907.31;5108577;28;1986;-60
2022/03/09 02:37:06;;;;;;;;;;;;;;;17.15;39.26;100916.63;5076746;28;801;-59
2022/03/09 02:39:31;;;;;;;;;;;;;;;17.05;39.51;100911.16;5076942;28;773;-60
2022/03/09 02:41:56;;;;;;;;;;;;;;;16.86;39.90;100908.09;5076918;28;712;-60
2022/03/09 02:44:22;;;;;;;;;;;;;;;18.18;37.29;100900.00;5076692;28;801;-60
2022/03/09 02:46:47;;;;;;;;;;;;;;;18.01;37.33;100896.78;5076205;28;890;-60
2022/03/09 02:49:13;;;;;;;;;;;;;;;17.56;38.18;100902.91;5076214;28;871;-62
2022/03/09 02:51:39;;;;;;;;;;;;;;;17.12;38.68;100897.16;5069838;28;933;-60
2022/03/09 02:54:04;;;;;;;;;;;;;;;16.86;39.52;100895.16;5076755;28;1905;-61
2022/03/09 02:56:30;;;;;;;;;;;;;;;17.48;38.57;100889.72;5075905;28;872;-61
2022/03/09 02:58:56;;;;;;;;;;;;;;;17.23;39.16;100898.78;5076620;28;831;-60
2022/03/09 03:01:21;;;;;;;;;;;;;;;16.96;39.53;100899.03;5075795;28;881;-61
2022/03/09 03:03:47;;;;;;;;;;;;;;;16.96;39.79;100899.88;5076208;28;770;-61
2022/03/09 03:06:12;;;;;;;;;;;;;;;16.79;39.97;100897.38;5076377;28;873;-59
2022/03/09 03:08:40;;;;;;;;;;;;;;;17.05;39.71;100894.66;5076343;28;734;-60
2022/03/09 03:11:07;;;;;;;;;;;;;;;17.39;38.75;100892.19;5076066;28;1030;-60
2022/03/09 03:13:32;;;;;;;;;;;;;;;18.01;37.40;100897.59;5076104;28;1956;-60
2022/03/09 03:15:57;;;;;;;;;;;;;;;17.99;37.68;100905.28;5075959;28;1188;-60
2022/03/09 03:18:23;;;;;;;;;;;;;;;17.65;38.14;100908.66;5075873;28;986;-60
2022/03/09 03:20:54;;;;;;;;;;;;;;;17.17;38.79;100899.91;5108881;28;828;-61
2022/03/09 03:23:26;;;;;;;;;;;;;;;16.96;39.40;100907.28;5076176;28;1236;-60
2022/03/09 03:25:51;;;;;;;;;;;;;;;16.94;39.70;100910.31;5075669;28;1042;-61
2022/03/09 03:28:17;;;;;;;;;;;;;;;16.93;39.84;100906.75;5076297;28;769;-60
2022/03/09 03:30:42;;;;;;;;;;;;;;;17.28;39.07;100912.53;5075854;28;911;-60
2022/03/09 03:33:08;;;;;;;;;;;;;;;17.65;38.27;100908.66;5075867;28;1964;-60
2022/03/09 03:35:33;;;;;;;;;;;;;;;17.79;37.68;100904.25;5075885;28;758;-62
2022/03/09 03:37:59;;;;;;;;;;;;;;;17.77;37.99;100913.88;5075588;28;817;-63
2022/03/09 03:40:24;;;;;;;;;;;;;;;17.33;38.46;100909.78;5076862;28;806;-62
2022/03/09 03:42:50;;;;;;;;;;;;;;;16.95;39.54;100903.72;5080193;28;897;-62
2022/03/09 03:45:15;;;;;;;;;;;;;;;16.99;39.36;100904.00;5079610;28;865;-62
2022/03/09 03:47:40;;;;;;;;;;;;;;;16.90;39.74;100896.31;5079750;28;825;-62
2022/03/09 03:50:06;;;;;;;;;;;;;;;17.07;39.41;100907.03;5079684;28;853;-61
2022/03/09 03:52:31;;;;;;;;;;;;;;;17.11;39.09;100910.06;5079535;28;820;-62
2022/03/09 03:54:57;;;;;;;;;;;;;;;17.22;39.11;100910.88;5079556;28;1914;-62
2022/03/09 03:57:22;;;;;;;;;;;;;;;17.19;39.04;100916.94;5079881;28;956;-62
2022/03/09 03:59:48;;;;;;;;;;;;;;;17.15;39.13;100918.56;5079885;28;803;-61
2022/03/09 04:02:13;;;;;;;;;;;;;;;17.09;39.29;100923.25;5078829;28;1117;-61
2022/03/09 04:04:38;;;;;;;;;;;;;;;17.13;39.11;100923.53;5079309;28;734;-61
2022/03/09 04:07:04;;;;;;;;;;;;;;;17.44;38.54;100921.59;5079607;28;769;-61
2022/03/09 04:09:29;;;;;;;;;;;;;;;17.58;38.24;100908.13;5079741;28;829;-60
2022/03/09 04:11:55;;;;;;;;;;;;;;;17.57;38.24;100914.72;5078707;28;1367;-60
2022/03/09 04:14:22;;;;;;;;;;;;;;;17.23;38.71;100915.28;5079406;28;1992;-60
2022/03/09 04:16:50;;;;;;;;;;;;;;;17.03;39.05;100916.91;5078884;28;1012;-61
2022/03/09 04:19:15;;;;;;;;;;;;;;;16.76;39.80;100914.38;5078776;28;850;-59
2022/03/09 04:21:41;;;;;;;;;;;;;;;16.76;39.76;100928.94;5079099;28;845;-58
2022/03/09 04:24:06;;;;;;;;;;;;;;;16.98;39.25;100914.16;5077049;28;826;-64
2022/03/09 04:26:32;;;;;;;;;;;;;;;17.56;38.41;100919.41;5078927;28;935;-61
2022/03/09 04:28:58;;;;;;;;;;;;;;;18.29;36.69;100925.56;5079007;28;804;-63
2022/03/09 04:31:23;;;;;;;;;;;;;;;18.35;36.38;100916.16;5078105;28;1232;-62
2022/03/09 04:33:49;;;;;;;;;;;;;;;17.83;37.26;100923.75;5078665;28;1910;-60
2022/03/09 04:36:14;;;;;;;;;;;;;;;17.24;38.42;100928.75;5079358;28;875;-60
2022/03/09 04:38:40;;;;;;;;;;;;;;;17.02;39.16;100930.94;5078651;28;761;-59
2022/03/09 04:41:05;;;;;;;;;;;;;;;18.05;37.02;100928.94;5078716;28;802;-61
2022/03/09 04:43:30;;;;;;;;;;;;;;;19.20;34.93;100933.59;5078506;28;896;-62
2022/03/09 04:45:56;;;;;;;;;;;;;;;18.40;36.01;100929.94;5078576;28;994;-63
2022/03/09 04:48:22;;;;;;;;;;;;;;;18.78;35.53;100927.50;5078466;28;1300;-63
2022/03/09 04:50:47;;;;;;;;;;;;;;;19.01;35.29;100919.69;5078633;28;824;-63
2022/03/09 04:53:13;;;;;;;;;;;;;;;18.81;35.44;100901.34;5078746;28;1978;-63
2022/03/09 04:55:38;;;;;;;;;;;;;;;18.61;35.90;100910.56;5077571;28;1389;-62
2022/03/09 04:58:04;;;;;;;;;;;;;;;18.16;36.54;100920.66;5078284;28;793;-62
2022/03/09 05:00:29;;;;;;;;;;;;;;;17.81;37.53;100925.13;5078696;28;809;-62
2022/03/09 05:02:55;;;;;;;;;;;;;;;17.52;37.95;100922.97;5078717;28;754;-62
2022/03/09 05:05:20;;;;;;;;;;;;;;;17.10;38.89;100922.97;5078801;28;738;-62
2022/03/09 05:07:45;;;;;;;;;;;;;;;16.99;38.55;100926.81;5078051;28;857;-59
2022/03/09 05:10:11;;;;;;;;;;;;;;;17.31;38.68;100927.66;5078516;28;785;-59
2022/03/09 05:12:36;;;;;;;;;;;;;;;17.86;37.22;100920.44;5078390;28;909;-60
2022/03/09 05:15:05;;;;;;;;;;;;;;;17.42;38.26;100930.13;5077970;28;1909;-60
2022/03/09 05:17:31;;;;;;;;;;;;;;;17.13;38.98;100929.03;5110927;28;946;-60
2022/03/09 05:19:57;;;;;;;;;;;;;;;16.81;38.51;100939.09;5077814;28;813;-60
2022/03/09 05:22:23;;;;;;;;;;;;;;;17.10;38.85;100933.97;5078087;28;793;-59
2022/03/09 05:24:48;;;;;;;;;;;;;;;17.06;39.08;100949.34;5078138;28;818;-60
2022/03/09 05:27:14;;;;;;;;;;;;;;;16.89;39.21;100954.25;5078440;28;862;-59
2022/03/09 05:29:40;;;;;;;;;;;;;;;16.71;39.80;100956.38;5077502;28;813;-61
2022/03/09 05:32:06;;;;;;;;;;;;;;;16.94;39.28;100965.25;5077772;28;830;-61
2022/03/09 05:34:31;;;;;;;;;;;;;;;17.54;38.23;100970.25;5077348;28;1926;-59
2022/03/09 05:36:56;;;;;;;;;;;;;;;17.81;37.58;100964.47;5078195;28;750;-61
2022/03/09 05:39:22;;;;;;;;;;;;;;;17.98;37.21;100964.19;5077750;28;815;-60
2022/03/09 05:41:47;;;;;;;;;;;;;;;17.79;37.35;100974.91;5078130;28;797;-62
2022/03/09 05:44:13;;;;;;;;;;;;;;;17.34;38.17;100971.91;5077767;28;771;-61
2022/03/09 05:46:38;;;;;;;;;;;;;;;16.99;39.12;100964.44;5077157;28;838;-61
2022/03/09 05:49:05;;;;;;;;;;;;;;;16.87;39.32;100978.38;5071294;28;740;-60
2022/03/09 05:51:31;;;;;;;;;;;;;;;16.66;39.52;100981.09;5070923;28;849;-59
2022/03/09 05:53:57;;;;;;;;;;;;;;;16.71;39.44;100975.59;5077645;28;1975;-60
2022/03/09 05:56:23;;;;;;;;;;;;;;;17.09;38.78;100969.94;5077552;28;836;-59
2022/03/09 05:58:48;;;;;;;;;;;;;;;17.57;37.64;100972.44;5077194;28;810;-59
2022/03/09 06:01:14;;;;;;;;;;;;;;;17.78;37.60;100982.34;5077268;28;890;-59
2022/03/09 06:03:39;;;;;;;;;;;;;;;17.79;37.50;100977.66;5076556;28;720;-59
2022/03/09 06:06:05;;;;;;;;;;;;;;;17.23;38.41;100975.75;5077212;28;838;-59
2022/03/09 06:08:31;;;;;;;;;;;;;;;16.87;39.21;100978.38;5077326;28;833;-59
2022/03/09 06:10:56;;;;;;;;;;;;;;;16.72;39.53;100980.00;5076582;28;765;-60
2022/03/09 06:13:22;;;;;;;;;;;;;;;16.66;39.73;100972.84;5077250;28;1910;-58
2022/03/09 06:15:49;;;;;;;;;;;;;;;16.84;39.30;100976.19;5076276;28;985;-59
2022/03/09 06:18:15;;;;;;;;;;;;;;;17.29;38.50;100977.38;5077069;28;749;-60
2022/03/09 06:20:40;;;;;;;;;;;;;;;17.72;37.45;100977.13;5076899;28;1067;-60
2022/03/09 06:23:06;;;;;;;;;;;;;;;18.00;37.01;100975.72;5077124;28;906;-60
2022/03/09 06:25:31;;;;;;;;;;;;;;;17.41;37.69;100971.63;5076172;28;880;-59
2022/03/09 06:27:58;;;;;;;;;;;;;;;16.95;38.82;100977.88;5076860;28;821;-60
2022/03/09 06:30:23;;;;;;;;;;;;;;;16.80;39.01;100983.31;5076867;28;860;-60
2022/03/09 06:32:49;;;;;;;;;;;;;;;16.84;39.24;100982.50;5076795;28;930;-58
2022/03/09 06:35:15;;;;;;;;;;;;;;;17.33;38.37;100986.72;5076792;28;1954;-60
2022/03/09 06:37:40;;;;;;;;;;;;;;;17.98;36.75;100980.69;5076505;28;930;-59
2022/03/09 06:40:06;;;;;;;;;;;;;;;18.29;36.19;100988.88;5076717;28;789;-59
2022/03/09 06:42:31;;;;;;;;;;;;;;;17.94;36.96;100985.13;5076640;28;825;-58
2022/03/09 06:44:57;;;;;;;;;;;;;;;17.36;37.94;100982.63;5076649;28;888;-60
2022/03/09 06:47:22;;;;;;;;;;;;;;;17.17;38.50;100985.09;5076027;28;900;-58
2022/03/09 06:49:48;;;;;;;;;;;;;;;16.87;38.89;100983.88;5076182;28;884;-59
2022/03/09 06:52:14;;;;;;;;;;;;;;;16.68;39.79;100981.63;5070057;28;829;-59
2022/03/09 06:54:40;;;;;;;;;;;;;;;18.25;36.55;100982.28;5076845;28;1883;-59
2022/03/09 06:57:05;;;;;;;;;;;;;;;17.83;36.96;100987.00;5076680;28;799;-60
2022/03/09 06:59:31;;;;;;;;;;;;;;;17.41;37.79;100977.13;5076513;28;849;-58
2022/03/09 07:01:56;;;;;;;;;;;;;;;16.91;38.81;100985.88;5075819;28;890;-59
2022/03/09 07:04:21;;;;;;;;;;;;;;;16.76;38.64;100988.53;5076642;28;817;-60
2022/03/09 07:06:47;;;;;;;;;;;;;;;16.65;39.67;100992.31;5076258;28;805;-60
2022/03/09 07:09:12;;;;;;;;;;;;;;;17.26;37.99;100986.19;5076698;28;954;-60
2022/03/09 07:11:38;;;;;;;;;;;;;;;17.03;38.34;100999.34;5076402;28;757;-58
2022/03/09 07:14:04;;;;;;;;;;;;;;;16.88;39.06;100986.38;5075983;28;1902;-62
2022/03/09 07:16:29;;;;;;;;;;;;;;;16.87;39.30;100992.97;5069424;28;1185;-60
2022/03/09 07:18:56;;;;;;;;;;;;;;;16.91;39.09;100996.00;5056673;28;745;-59
2022/03/09 07:21:21;;;;;;;;;;;;;;;17.16;38.27;100987.00;5056132;28;744;-59
2022/03/09 07:23:47;;;;;;;;;;;;;;;17.55;37.59;100991.16;5056196;28;754;-59
2022/03/09 07:26:12;;;;;;;;;;;;;;;17.79;37.16;100992.25;5056246;28;889;-59
2022/03/09 07:28:38;;;;;;;;;;;;;;;17.72;37.01;100994.44;5055717;28;877;-60
2022/03/09 07:31:03;;;;;;;;;;;;;;;17.31;38.13;100988.13;5058362;28;755;-59
2022/03/09 07:33:29;;;;;;;;;;;;;;;17.16;38.46;100997.97;5055944;28;1971;-60
2022/03/09 07:35:56;;;;;;;;;;;;;;;16.79;38.87;100984.41;5055876;28;838;-62
2022/03/09 07:38:21;;;;;;;;;;;;;;;16.86;39.10;100987.75;5056127;28;804;-63
2022/03/09 07:40:47;;;;;;;;;;;;;;;17.08;38.62;100988.38;5056040;28;816;-61
2022/03/09 07:43:12;;;;;;;;;;;;;;;17.38;37.99;100986.75;5055981;28;790;-60
2022/03/09 07:45:38;;;;;;;;;;;;;;;17.71;37.18;100979.06;5056374;28;864;-60
2022/03/09 07:48:04;;;;;;;;;;;;;;;17.86;37.09;100980.13;5056077;28;865;-61
2022/03/09 07:50:30;;;;;;;;;;;;;;;17.64;37.15;100975.75;5071669;28;797;-60
2022/03/09 07:52:56;;;;;;;;;;;;;;;17.26;38.15;100981.53;5049016;28;1902;-59
2022/03/09 07:55:21;;;;;;;;;;;;;;;16.95;38.78;100980.63;5055701;28;777;-61
2022/03/09 07:57:47;;;;;;;;;;;;;;;16.71;39.23;100972.84;5037199;28;1238;-60
2022/03/09 08:00:13;;;;;;;;;;;;;;;16.66;38.79;100972.00;5055896;28;1102;-60
2022/03/09 08:02:42;;;;;;;;;;;;;;;17.28;38.07;100973.81;5061400;28;813;-60
2022/03/09 08:05:07;;;;;;;;;;;;;;;17.17;38.10;100965.84;5055862;28;814;-59
2022/03/09 08:07:33;;;;;;;;;;;;;;;16.83;39.00;100963.53;5055380;28;861;-59
2022/03/09 08:09:58;;;;;;;;;;;;;;;16.58;39.37;100965.13;5071169;28;845;-60
2022/03/09 08:12:24;;;;;;;;;;;;;;;16.72;39.11;100971.75;5055651;28;854;-58
2022/03/09 08:14:49;;;;;;;;;;;;;;;16.70;39.34;100959.38;5055577;28;1911;-58
2022/03/09 08:17:15;;;;;;;;;;;;;;;16.82;39.07;100967.41;5074182;28;1305;-58
2022/03/09 08:19:40;;;;;;;;;;;;;;;17.14;38.20;100974.63;5075610;28;907;-58
2022/03/09 08:22:06;;;;;;;;;;;;;;;17.53;37.52;100968.59;5075401;28;785;-59
2022/03/09 08:24:35;;;;;;;;;;;;;;;17.70;36.91;100979.34;5075798;28;793;-58
2022/03/09 08:27:01;;;;;;;;;;;;;;;17.46;37.62;100974.41;5077264;28;852;-58
2022/03/09 08:29:26;;;;;;;;;;;;;;;17.27;37.81;100980.41;5079010;28;805;-58
2022/03/09 08:31:52;;;;;;;;;;;;;;;17.15;38.33;100979.03;5078478;28;904;-58
2022/03/09 08:34:17;;;;;;;;;;;;;;;16.98;38.41;100974.59;5078987;28;1972;-58
2022/03/09 08:36:42;;;;;;;;;;;;;;;16.94;38.76;100981.72;5078773;28;830;-59
2022/03/09 08:39:08;;;;;;;;;;;;;;;17.21;38.04;100972.47;5078620;28;984;-60
2022/03/09 08:41:33;;;;;;;;;;;;;;;17.77;37.01;100968.88;5078708;28;1075;-58
2022/03/09 08:43:59;;;;;;;;;;;;;;;17.88;36.62;100964.16;5078493;28;938;-57
2022/03/09 08:46:25;;;;;;;;;;;;;;;17.67;37.07;100975.22;5078958;28;839;-58
2022/03/09 08:48:50;;;;;;;;;;;;;;;17.16;38.03;100977.94;5079028;28;947;-59
2022/03/09 08:51:20;;;;;;;;;;;;;;;16.83;39.07;100988.25;5078842;28;801;-58
2022/03/09 08:53:45;;;;;;;;;;;;;;;16.76;39.15;100983.84;5078705;28;1963;-60
2022/03/09 08:56:11;;;;;;;;;;;;;;;16.76;38.98;100992.09;5079046;28;813;-60
2022/03/09 08:58:37;;;;;;;;;;;;;;;17.12;38.30;100979.56;5110940;28;906;-60
2022/03/09 09:01:03;;;;;;;;;;;;;;;17.56;37.67;100984.56;5078287;28;849;-60
2022/03/09 09:03:28;;;;;;;;;;;;;;;17.97;36.42;100984.56;5078358;28;804;-58
2022/03/09 09:05:54;;;;;;;;;;;;;;;17.53;37.27;100990.59;5078076;28;880;-59
2022/03/09 09:08:19;;;;;;;;;;;;;;;17.11;38.12;100978.75;5078960;28;819;-60
2022/03/09 09:10:45;;;;;;;;;;;;;;;16.97;38.57;100981.19;5077930;28;823;-60
2022/03/09 09:13:11;;;;;;;;;;;;;;;16.80;39.13;100980.56;5078171;28;1959;-58
2022/03/09 09:15:38;;;;;;;;;;;;;;;16.91;38.61;100982.28;5078258;28;1206;-58
2022/03/09 09:18:04;;;;;;;;;;;;;;;17.07;38.59;100981.22;5078378;28;922;-58
2022/03/09 09:20:29;;;;;;;;;;;;;;;17.37;37.65;100976.03;5078104;28;800;-61
2022/03/09 09:22:55;;;;;;;;;;;;;;;17.45;37.56;100984.56;5077703;28;864;-60
2022/03/09 09:25:20;;;;;;;;;;;;;;;17.56;37.48;100985.38;5078203;28;766;-61
2022/03/09 09:27:46;;;;;;;;;;;;;;;17.10;37.95;100993.59;5078189;28;837;-60
2022/03/09 09:30:12;;;;;;;;;;;;;;;16.95;38.72;100977.88;5078229;28;863;-56
2022/03/09 09:32:37;;;;;;;;;;;;;;;16.87;38.75;100984.72;5075727;28;788;-59
2022/03/09 09:35:03;;;;;;;;;;;;;;;16.89;38.81;100992.72;5077252;28;1913;-59
2022/03/09 09:37:29;;;;;;;;;;;;;;;16.79;38.98;100987.13;5078016;28;785;-58
2022/03/09 09:39:54;;;;;;;;;;;;;;;16.97;38.58;100986.69;5077816;28;762;-58
2022/03/09 09:42:22;;;;;;;;;;;;;;;17.47;37.41;100992.53;5077686;28;730;-58
2022/03/09 09:44:47;;;;;;;;;;;;;;;17.66;37.06;100992.00;5077616;28;852;-58
2022/03/09 09:47:14;;;;;;;;;;;;;;;17.66;36.95;100998.31;5109588;28;1068;-57
2022/03/09 09:49:42;;;;;;;;;;;;;;;17.27;37.81;100987.84;5076978;28;891;-59
2022/03/09 09:52:08;;;;;;;;;;;;;;;16.96;38.27;100993.28;5077796;28;775;-57
2022/03/09 09:54:33;;;;;;;;;;;;;;;16.82;38.70;100995.69;5077152;28;1972;-59
2022/03/09 09:56:59;;;;;;;;;;;;;;;16.72;39.11;100992.91;5109635;28;765;-57
2022/03/09 09:59:24;;;;;;;;;;;;;;;16.83;38.89;100994.59;5077181;28;804;-57
2022/03/09 10:01:50;;;;;;;;;;;;;;;16.80;39.04;100995.09;5076540;28;891;-57
2022/03/09 10:04:15;;;;;;;;;;;;;;;17.20;37.90;100988.09;5077069;28;896;-56
2022/03/09 10:06:41;;;;;;;;;;;;;;;17.43;37.58;100992.25;5077074;28;804;-57
2022/03/09 10:09:07;;;;;;;;;;;;;;;17.29;37.72;100991.13;5077358;28;742;-58
2022/03/09 10:11:45;;;;;;;;;;;;;;;16.98;38.46;100996.56;5076843;28;980;-58
2022/03/09 10:14:11;;;;;;;;;;;;;;;16.79;38.54;101000.88;5071340;28;1905;-58
2022/03/09 10:16:37;;;;;;;;;;;;;;;16.77;38.86;100998.41;5108861;28;1088;-58
2022/03/09 10:19:02;;;;;;;;;;;;;;;16.77;38.87;100996.50;5076799;28;857;-59
2022/03/09 10:21:29;;;;;;;;;;;;;;;17.02;38.38;100992.19;5077284;28;815;-58
2022/03/09 10:23:54;;;;;;;;;;;;;;;17.50;37.14;100988.41;5077114;28;762;-58
2022/03/09 10:26:22;;;;;;;;;;;;;;;17.68;37.04;100987.84;5076413;28;822;-58
2022/03/09 10:29:14;;;;;;;;;;;;;;;17.51;37.37;100990.06;5075480;28;848;-60
2022/03/09 10:31:40;;;;;;;;;;;;;;;17.18;37.95;100989.47;5075480;28;1813;-57
2022/03/09 10:34:11;;;;;;;;;;;;;;;16.88;38.35;100985.53;5076840;28;1984;-58
2022/03/09 10:36:37;;;;;;;;;;;;;;;16.69;38.67;100994.28;5076439;28;920;-58
2022/03/09 10:39:12;;;;;;;;;;;;;;;16.60;39.36;100987.63;5076420;28;764;-58
2022/03/09 10:41:37;;;;;;;;;;;;;;;17.28;37.65;100979.31;5076511;28;820;-58
2022/03/09 10:44:03;;;;;;;;;;;;;;;16.84;38.29;100978.94;5076541;28;956;-58
2022/03/09 10:46:30;;;;;;;;;;;;;;;16.68;38.86;100978.06;5076502;28;862;-57
2022/03/09 10:49:00;;;;;;;;;;;;;;;16.84;38.53;100970.69;5108262;28;1472;-59
2022/03/09 10:51:30;;;;;;;;;;;;;;;17.86;36.70;100967.19;5076577;28;769;-59
2022/03/09 10:53:55;;;;;;;;;;;;;;;18.27;35.50;100969.91;5075435;28;1913;-59
2022/03/09 10:56:21;;;;;;;;;;;;;;;17.39;37.16;100969.16;5076121;28;762;-57
2022/03/09 10:58:46;;;;;;;;;;;;;;;17.00;38.09;100974.31;5076511;28;826;-57
2022/03/09 11:01:15;;;;;;;;;;;;;;;16.77;38.40;100966.28;5076469;28;843;-57
2022/03/09 11:03:43;;;;;;;;;;;;;;;16.47;38.42;100977.16;5076466;28;734;-57
2022/03/09 11:06:09;;;;;;;;;;;;;;;17.66;36.92;100961.75;5075829;28;875;-57
2022/03/09 11:08:34;;;;;;;;;;;;;;;17.57;37.08;100965.03;5076707;28;840;-57
2022/03/09 11:11:00;;;;;;;;;;;;;;;17.10;37.68;100955.13;5076197;28;758;-56
2022/03/09 11:13:26;;;;;;;;;;;;;;;16.83;38.17;100960.78;5076733;28;1910;-56
2022/03/09 11:15:53;;;;;;;;;;;;;;;16.71;38.62;100959.13;5075607;28;1209;-58
2022/03/09 11:18:19;;;;;;;;;;;;;;;16.71;38.94;100966.53;5076012;28;738;-58
2022/03/09 11:20:45;;;;;;;;;;;;;;;18.36;35.18;100961.88;5076473;28;822;-59
2022/03/09 11:23:11;;;;;;;;;;;;;;;17.55;36.84;100958.97;5108566;28;964;-60
2022/03/09 11:25:37;;;;;;;;;;;;;;;17.21;37.27;100958.72;5108384;28;850;-58
2022/03/09 11:28:03;;;;;;;;;;;;;;;16.89;38.04;100968.81;5076335;28;849;-58
2022/03/09 11:30:29;;;;;;;;;;;;;;;16.75;38.73;100962.16;5107775;28;865;-58
2022/03/09 11:32:58;;;;;;;;;;;;;;;17.14;37.92;100955.38;5076225;28;796;-58
2022/03/09 11:35:29;;;;;;;;;;;;;;;18.24;35.65;100953.94;5076457;28;1909;-58
2022/03/09 11:37:55;;;;;;;;;;;;;;;17.50;37.05;100970.00;5076115;28;777;-58
2022/03/09 11:40:20;;;;;;;;;;;;;;;17.00;37.80;100966.91;5076317;28;788;-58
2022/03/09 11:42:46;;;;;;;;;;;;;;;16.82;38.42;100964.66;5076002;28;772;-58
2022/03/09 11:45:14;;;;;;;;;;;;;;;16.66;38.28;100972.00;5108185;28;753;-58
2022/03/09 11:47:56;;;;;;;;;;;;;;;17.19;37.51;100964.47;5075568;28;957;-59
2022/03/09 11:50:21;;;;;;;;;;;;;;;16.88;38.26;100969.06;5076474;28;1277;-59
2022/03/09 11:53:13;;;;;;;;;;;;;;;16.69;38.62;100972.31;5075460;28;964;-57
2022/03/09 11:55:39;;;;;;;;;;;;;;;16.48;38.94;100959.56;5074140;28;1690;-57
2022/03/09 11:58:05;;;;;;;;;;;;;;;16.51;38.94;100972.75;5076012;28;758;-59
2022/03/09 12:00:30;;;;;;;;;;;;;;;18.08;35.82;100969.66;5075409;28;906;-59
2022/03/09 12:02:56;;;;;;;;;;;;;;;17.73;36.22;100968.59;5079191;28;815;-58
2022/03/09 12:05:25;;;;;;;;;;;;;;;17.11;37.44;100976.00;5079487;28;953;-58
2022/03/09 12:07:51;;;;;;;;;;;;;;;16.69;38.19;100975.06;5079216;28;829;-58
2022/03/09 12:10:17;;;;;;;;;;;;;;;16.72;38.73;100977.25;5079201;28;806;-58
2022/03/09 12:13:01;;;;;;;;;;;;;;;17.75;36.69;100982.06;5079614;28;824;-57
2022/03/09 12:15:26;;;;;;;;;;;;;;;17.01;37.73;100979.56;5073685;28;1905;-57
2022/03/09 12:17:52;;;;;;;;;;;;;;;16.73;38.38;100978.06;5073498;28;812;-58
2022/03/09 12:20:20;;;;;;;;;;;;;;;16.61;38.55;100983.81;5078859;28;814;-58
2022/03/09 12:23:01;;;;;;;;;;;;;;;16.34;39.48;100976.56;5079383;28;814;-57
2022/03/09 12:25:39;;;;;;;;;;;;;;;17.87;36.29;100973.53;5079033;28;933;-57
2022/03/09 12:28:23;;;;;;;;;;;;;;;17.50;36.92;100988.41;5079130;28;848;-57
2022/03/09 12:30:53;;;;;;;;;;;;;;;16.96;37.69;100981.44;5078766;28;848;-59
2022/03/09 12:33:27;;;;;;;;;;;;;;;16.52;38.61;100977.16;5078725;28;1965;-59
2022/03/09 12:35:53;;;;;;;;;;;;;;;16.62;38.82;100979.13;5073318;28;743;-59
2022/03/09 12:38:19;;;;;;;;;;;;;;;18.08;35.81;100982.59;5079321;28;765;-57
2022/03/09 12:40:47;;;;;;;;;;;;;;;17.40;36.97;100981.81;5078869;28;829;-57
2022/03/09 12:43:16;;;;;;;;;;;;;;;17.05;37.34;100980.66;5072666;28;829;-58
2022/03/09 12:45:51;;;;;;;;;;;;;;;16.84;37.79;100987.16;5071749;28;892;-58
2022/03/09 12:48:17;;;;;;;;;;;;;;;16.54;38.49;100981.28;5073186;28;861;-58
2022/03/09 12:50:43;;;;;;;;;;;;;;;16.81;38.14;100985.78;5079175;28;932;-58
2022/03/09 12:53:09;;;;;;;;;;;;;;;17.01;37.77;100996.06;5111902;28;1906;-58